createdAt,value
2018-08-18T00:00:55.779Z,29.8
2018-08-18T00:01:57.368Z,29.8
2018-08-18T00:02:58.804Z,29.8
2018-08-18T00:04:00.404Z,29.8
2018-08-18T00:05:01.998Z,29.3
2018-08-18T00:06:03.591Z,30.3
2018-08-18T00:07:04.868Z,29.8
2018-08-18T00:08:06.301Z,30.3
2018-08-18T00:09:07.916Z,29.3
2018-08-18T00:10:09.373Z,29.8
2018-08-18T00:11:10.819Z,30.3
2018-08-18T00:12:12.434Z,29.8
2018-08-18T00:13:13.883Z,29.8
2018-08-18T00:14:15.321Z,29.8
2018-08-18T00:15:16.934Z,29.8
2018-08-18T00:16:18.537Z,29.8
2018-08-18T00:17:20.152Z,29.8
2018-08-18T00:18:21.769Z,29.3
2018-08-18T00:19:23.374Z,29.8
2018-08-18T00:20:24.664Z,28.8
2018-08-18T00:21:25.946Z,29.3
2018-08-18T00:22:27.546Z,29.3
2018-08-18T00:23:43.828Z,30.3
2018-08-18T00:24:45.422Z,29.3
2018-08-18T00:25:47.015Z,29.8
2018-08-18T00:26:48.280Z,29.8
2018-08-18T00:27:49.718Z,29.8
2018-08-18T00:28:50.982Z,29.8
2018-08-18T00:29:52.584Z,29.8
2018-08-18T00:30:54.187Z,29.8
2018-08-18T00:31:55.768Z,29.8
2018-08-18T00:32:57.065Z,29.3
2018-08-18T00:33:58.514Z,29.8
2018-08-18T00:35:00.127Z,29.3
2018-08-18T00:36:01.554Z,29.3
2018-08-18T00:37:02.985Z,29.3
2018-08-18T00:38:04.584Z,30.3
2018-08-18T00:39:05.871Z,29.3
2018-08-18T00:40:07.484Z,29.3
2018-08-18T00:41:09.091Z,29.3
2018-08-18T00:42:10.677Z,29.3
2018-08-18T00:43:12.275Z,29.8
2018-08-18T00:44:13.884Z,29.3
2018-08-18T00:45:15.485Z,29.8
2018-08-18T00:46:16.934Z,29.3
2018-08-18T00:47:18.526Z,29.3
2018-08-18T00:48:20.118Z,29.3
2018-08-18T00:49:21.550Z,29.3
2018-08-18T00:50:23.152Z,29.3
2018-08-18T00:51:24.755Z,29.3
2018-08-18T00:52:26.358Z,28.8
2018-08-18T00:53:27.960Z,28.8
2018-08-18T00:54:29.582Z,29.8
2018-08-18T00:55:31.027Z,28.8
2018-08-18T00:56:32.615Z,29.3
2018-08-18T00:57:34.050Z,29.3
2018-08-18T00:58:35.488Z,29.3
2018-08-18T00:59:36.917Z,29.8
2018-08-18T01:00:38.524Z,28.8
2018-08-18T01:01:39.798Z,29.3
2018-08-18T01:02:41.394Z,29.3
2018-08-18T01:03:43.009Z,29.3
2018-08-18T01:04:44.604Z,29.3
2018-08-18T01:05:45.864Z,29.8
2018-08-18T01:06:47.300Z,29.3
2018-08-18T01:07:48.739Z,29.8
2018-08-18T01:08:50.347Z,29.3
2018-08-18T01:09:51.951Z,29.3
2018-08-18T01:10:53.654Z,29.3
2018-08-18T01:11:56.022Z,29.8
2018-08-18T01:12:58.053Z,29.3
2018-08-18T01:14:00.677Z,29.8
2018-08-18T01:15:03.027Z,29.3
2018-08-18T01:16:04.646Z,29.3
2018-08-18T01:17:06.256Z,28.8
2018-08-18T01:18:07.515Z,29.3
2018-08-18T01:19:08.936Z,29.8
2018-08-18T01:20:10.533Z,29.8
2018-08-18T01:21:12.147Z,28.8
2018-08-18T01:22:13.750Z,29.8
2018-08-18T01:23:15.345Z,29.8
2018-08-18T01:24:16.617Z,29.3
2018-08-18T01:25:18.208Z,29.8
2018-08-18T01:26:19.824Z,29.3
2018-08-18T01:27:21.115Z,29.8
2018-08-18T01:28:22.722Z,29.3
2018-08-18T01:29:24.315Z,29.8
2018-08-18T01:30:25.764Z,29.8
2018-08-18T01:31:27.027Z,29.8
2018-08-18T01:32:28.460Z,30.3
2018-08-18T01:33:29.904Z,30.3
2018-08-18T01:34:31.498Z,29.8
2018-08-18T01:35:33.082Z,29.8
2018-08-18T01:36:34.516Z,29.8
2018-08-18T01:37:35.804Z,30.8
2018-08-18T01:38:37.405Z,30.8
2018-08-18T01:39:38.855Z,30.8
2018-08-18T01:40:40.286Z,30.3
2018-08-18T01:41:41.888Z,30.8
2018-08-18T01:42:43.502Z,31.3
2018-08-18T01:43:44.989Z,30.8
2018-08-18T01:44:46.493Z,31.3
2018-08-18T01:45:47.600Z,30.3
2018-08-18T01:46:49.037Z,31.3
2018-08-18T01:47:50.630Z,30.8
2018-08-18T01:48:52.216Z,30.8
2018-08-18T01:49:53.835Z,30.8
2018-08-18T01:50:55.451Z,31.3
2018-08-18T01:51:57.048Z,31.3
2018-08-18T01:52:58.641Z,31.3
2018-08-18T01:54:00.251Z,31.8
2018-08-18T01:55:01.714Z,30.8
2018-08-18T01:56:02.981Z,31.3
2018-08-18T01:57:04.579Z,31.8
2018-08-18T01:58:06.176Z,31.8
2018-08-18T01:59:07.612Z,31.8
2018-08-18T02:00:08.712Z,31.3
2018-08-18T02:01:10.307Z,31.8
2018-08-18T02:02:11.740Z,31.8
2018-08-18T02:03:13.353Z,32.7
2018-08-18T02:04:14.965Z,31.8
2018-08-18T02:05:16.407Z,31.8
2018-08-18T02:06:18.012Z,31.3
2018-08-18T02:07:19.610Z,31.8
2018-08-18T02:08:21.043Z,32.3
2018-08-18T02:09:22.456Z,32.3
2018-08-18T02:10:23.735Z,32.3
2018-08-18T02:11:25.004Z,31.8
2018-08-18T02:12:26.432Z,31.8
2018-08-18T02:13:28.035Z,32.3
2018-08-18T02:14:29.633Z,31.8
2018-08-18T02:15:30.906Z,31.8
2018-08-18T02:16:32.515Z,32.3
2018-08-18T02:17:34.134Z,32.7
2018-08-18T02:18:35.736Z,31.8
2018-08-18T02:19:37.183Z,32.3
2018-08-18T02:20:38.791Z,31.8
2018-08-18T02:21:40.403Z,32.7
2018-08-18T02:22:42.013Z,32.3
2018-08-18T02:23:43.620Z,31.8
2018-08-18T02:24:45.225Z,32.3
2018-08-18T02:25:46.324Z,32.3
2018-08-18T02:26:47.592Z,32.3
2018-08-18T02:27:49.212Z,31.8
2018-08-18T02:28:50.813Z,31.8
2018-08-18T02:29:52.251Z,32.7
2018-08-18T02:30:53.855Z,32.3
2018-08-18T02:31:55.455Z,32.3
2018-08-18T02:32:57.096Z,32.3
2018-08-18T02:33:58.520Z,32.3
2018-08-18T02:35:00.198Z,31.8
2018-08-18T02:36:01.798Z,32.7
2018-08-18T02:37:03.251Z,31.8
2018-08-18T02:38:04.860Z,32.3
2018-08-18T02:39:06.301Z,31.8
2018-08-18T02:40:08.460Z,32.3
2018-08-18T02:41:09.922Z,31.8
2018-08-18T02:42:11.216Z,32.7
2018-08-18T02:43:12.651Z,32.3
2018-08-18T02:44:14.272Z,32.7
2018-08-18T02:45:15.737Z,31.8
2018-08-18T02:46:17.379Z,32.3
2018-08-18T02:47:18.975Z,31.3
2018-08-18T02:48:20.595Z,31.8
2018-08-18T02:49:22.061Z,31.8
2018-08-18T02:50:23.668Z,32.3
2018-08-18T02:51:25.095Z,32.3
2018-08-18T02:52:26.355Z,32.3
2018-08-18T02:53:27.789Z,32.3
2018-08-18T02:54:29.390Z,31.8
2018-08-18T02:55:30.993Z,31.8
2018-08-18T02:56:32.275Z,31.8
2018-08-18T02:57:33.891Z,32.3
2018-08-18T02:58:35.507Z,31.8
2018-08-18T02:59:37.108Z,31.8
2018-08-18T03:00:38.704Z,31.8
2018-08-18T03:01:40.290Z,31.8
2018-08-18T03:02:41.719Z,31.8
2018-08-18T03:03:42.997Z,31.8
2018-08-18T03:04:44.441Z,32.3
2018-08-18T03:05:46.034Z,31.3
2018-08-18T03:06:47.649Z,31.8
2018-08-18T03:07:49.758Z,31.3
2018-08-18T03:08:51.373Z,31.3
2018-08-18T03:09:52.978Z,31.3
2018-08-18T03:10:54.594Z,32.3
2018-08-18T03:11:56.046Z,31.3
2018-08-18T03:12:57.352Z,31.3
2018-08-18T03:13:58.940Z,32.3
2018-08-18T03:15:00.372Z,31.8
2018-08-18T03:16:01.812Z,32.3
2018-08-18T03:17:03.456Z,31.3
2018-08-18T03:18:05.052Z,32.3
2018-08-18T03:19:06.492Z,31.3
2018-08-18T03:20:08.143Z,31.3
2018-08-18T03:21:09.755Z,31.8
2018-08-18T03:22:11.190Z,31.3
2018-08-18T03:23:12.631Z,31.8
2018-08-18T03:24:14.060Z,31.3
2018-08-18T03:25:15.503Z,30.8
2018-08-18T03:26:16.966Z,31.3
2018-08-18T03:27:18.564Z,31.3
2018-08-18T03:28:20.153Z,30.8
2018-08-18T03:29:21.651Z,31.3
2018-08-18T03:30:23.095Z,31.3
2018-08-18T03:31:24.379Z,30.8
2018-08-18T03:32:25.827Z,31.3
2018-08-18T03:33:27.426Z,31.8
2018-08-18T03:34:28.723Z,30.8
2018-08-18T03:35:30.316Z,31.3
2018-08-18T03:36:31.745Z,31.3
2018-08-18T03:37:33.345Z,31.3
2018-08-18T03:38:34.788Z,31.8
2018-08-18T03:39:36.073Z,31.3
2018-08-18T03:40:37.703Z,31.8
2018-08-18T03:41:39.158Z,32.7
2018-08-18T03:42:40.761Z,31.8
2018-08-18T03:43:42.351Z,31.8
2018-08-18T03:44:43.785Z,31.8
2018-08-18T03:45:45.210Z,32.3
2018-08-18T03:46:46.677Z,32.3
2018-08-18T03:47:48.115Z,31.8
2018-08-18T03:48:49.552Z,31.8
2018-08-18T03:49:51.168Z,32.3
2018-08-18T03:50:52.609Z,32.3
2018-08-18T03:51:54.043Z,31.8
2018-08-18T03:52:55.665Z,32.3
2018-08-18T03:53:57.297Z,32.3
2018-08-18T03:54:58.919Z,32.3
2018-08-18T03:56:00.350Z,32.3
2018-08-18T03:57:01.931Z,31.8
2018-08-18T03:58:03.539Z,32.3
2018-08-18T03:59:05.139Z,31.8
2018-08-18T04:00:06.563Z,32.3
2018-08-18T04:01:08.011Z,31.8
2018-08-18T04:02:10.445Z,32.7
2018-08-18T04:03:12.064Z,32.7
2018-08-18T04:04:13.669Z,32.3
2018-08-18T04:05:15.278Z,32.3
2018-08-18T04:06:16.733Z,31.8
2018-08-18T04:07:18.325Z,31.8
2018-08-18T04:08:19.949Z,31.8
2018-08-18T04:09:22.327Z,32.7
2018-08-18T04:10:24.172Z,32.7
2018-08-18T04:11:25.787Z,32.3
2018-08-18T04:12:27.231Z,32.7
2018-08-18T04:13:28.822Z,32.3
2018-08-18T04:14:30.268Z,32.7
2018-08-18T04:15:32.072Z,31.8
2018-08-18T04:16:33.699Z,32.7
2018-08-18T04:17:34.966Z,31.3
2018-08-18T04:18:36.568Z,32.3
2018-08-18T04:19:37.831Z,32.7
2018-08-18T04:20:39.451Z,31.8
2018-08-18T04:21:40.906Z,32.3
2018-08-18T04:22:42.502Z,31.8
2018-08-18T04:23:43.929Z,32.3
2018-08-18T04:24:45.387Z,31.8
2018-08-18T04:26:01.698Z,32.3
2018-08-18T04:27:03.336Z,32.3
2018-08-18T04:28:04.939Z,31.8
2018-08-18T04:29:06.546Z,32.7
2018-08-18T04:30:08.150Z,33.2
2018-08-18T04:31:09.758Z,32.3
2018-08-18T04:32:11.214Z,32.3
2018-08-18T04:33:12.661Z,31.8
2018-08-18T04:34:14.270Z,31.8
2018-08-18T04:35:16.268Z,31.8
2018-08-18T04:36:17.830Z,32.7
2018-08-18T04:37:19.456Z,32.3
2018-08-18T04:38:21.063Z,31.3
2018-08-18T04:39:22.544Z,32.3
2018-08-18T04:40:24.138Z,32.3
2018-08-18T04:41:25.627Z,32.3
2018-08-18T04:42:26.896Z,32.3
2018-08-18T04:43:28.337Z,31.8
2018-08-18T04:44:29.779Z,31.8
2018-08-18T04:45:31.440Z,32.3
2018-08-18T04:46:32.896Z,31.8
2018-08-18T04:47:34.508Z,32.3
2018-08-18T04:48:36.105Z,32.3
2018-08-18T04:49:37.723Z,31.8
2018-08-18T04:50:39.439Z,31.8
2018-08-18T04:51:41.103Z,32.7
2018-08-18T04:52:42.544Z,31.8
2018-08-18T04:53:44.362Z,32.3
2018-08-18T04:54:45.798Z,31.8
2018-08-18T04:55:47.251Z,31.8
2018-08-18T04:56:49.070Z,31.3
2018-08-18T04:57:50.809Z,32.3
2018-08-18T04:58:52.230Z,31.8
2018-08-18T04:59:53.687Z,31.3
2018-08-18T05:00:55.310Z,31.3
2018-08-18T05:01:56.935Z,31.8
2018-08-18T05:02:58.407Z,31.8
2018-08-18T05:04:00.007Z,31.3
2018-08-18T05:05:01.826Z,31.3
2018-08-18T05:06:03.495Z,31.3
2018-08-18T05:07:05.114Z,30.8
2018-08-18T05:08:06.550Z,30.8
2018-08-18T05:09:07.812Z,30.8
2018-08-18T05:10:09.251Z,31.8
2018-08-18T05:11:10.849Z,31.3
2018-08-18T05:12:12.481Z,31.8
2018-08-18T05:13:13.929Z,31.3
2018-08-18T05:14:15.376Z,31.3
2018-08-18T05:15:16.824Z,30.8
2018-08-18T05:16:18.281Z,31.3
2018-08-18T05:17:19.890Z,30.8
2018-08-18T05:18:21.161Z,31.8
2018-08-18T05:19:23.372Z,31.3
2018-08-18T05:20:25.163Z,31.3
2018-08-18T05:21:26.779Z,31.3
2018-08-18T05:22:28.051Z,31.8
2018-08-18T05:23:29.322Z,30.8
2018-08-18T05:24:30.929Z,30.3
2018-08-18T05:25:32.526Z,31.3
2018-08-18T05:26:34.124Z,31.3
2018-08-18T05:27:35.727Z,31.8
2018-08-18T05:28:37.160Z,31.3
2018-08-18T05:29:38.765Z,31.3
2018-08-18T05:30:40.036Z,31.3
2018-08-18T05:31:41.644Z,30.8
2018-08-18T05:32:42.927Z,31.3
2018-08-18T05:33:44.520Z,30.8
2018-08-18T05:34:46.131Z,30.8
2018-08-18T05:35:47.745Z,31.3
2018-08-18T05:36:49.365Z,31.3
2018-08-18T05:37:50.963Z,30.8
2018-08-18T05:38:52.578Z,31.8
2018-08-18T05:39:54.023Z,30.8
2018-08-18T05:40:55.449Z,30.3
2018-08-18T05:41:57.072Z,31.3
2018-08-18T05:42:58.502Z,31.3
2018-08-18T05:44:00.110Z,31.3
2018-08-18T05:45:01.700Z,31.8
2018-08-18T05:46:03.151Z,31.3
2018-08-18T05:47:04.771Z,31.8
2018-08-18T05:48:06.392Z,31.3
2018-08-18T05:49:07.993Z,30.8
2018-08-18T05:50:09.427Z,31.8
2018-08-18T05:51:11.062Z,31.3
2018-08-18T05:52:12.505Z,31.3
2018-08-18T05:53:13.945Z,31.8
2018-08-18T05:54:15.373Z,31.3
2018-08-18T05:55:16.963Z,31.3
2018-08-18T05:56:18.588Z,31.3
2018-08-18T05:57:19.865Z,32.3
2018-08-18T05:58:21.455Z,31.8
2018-08-18T05:59:22.883Z,32.3
2018-08-18T06:00:24.151Z,31.8
2018-08-18T06:01:25.769Z,31.3
2018-08-18T06:02:27.372Z,31.8
2018-08-18T06:03:28.801Z,32.7
2018-08-18T06:04:30.247Z,32.3
2018-08-18T06:05:31.732Z,31.8
2018-08-18T06:06:33.357Z,32.3
2018-08-18T06:07:34.628Z,31.8
2018-08-18T06:08:36.218Z,32.3
2018-08-18T06:09:37.663Z,32.7
2018-08-18T06:10:39.100Z,32.3
2018-08-18T06:11:40.690Z,31.8
2018-08-18T06:12:42.284Z,32.3
2018-08-18T06:13:43.721Z,31.8
2018-08-18T06:14:45.323Z,31.8
2018-08-18T06:15:46.770Z,32.3
2018-08-18T06:16:48.390Z,31.8
2018-08-18T06:17:50.006Z,31.3
2018-08-18T06:18:51.453Z,31.8
2018-08-18T06:19:52.903Z,31.8
2018-08-18T06:20:54.501Z,32.3
2018-08-18T06:21:55.984Z,32.3
2018-08-18T06:22:57.592Z,32.3
2018-08-18T06:23:58.889Z,32.3
2018-08-18T06:25:00.501Z,32.3
2018-08-18T06:26:02.169Z,31.8
2018-08-18T06:27:03.615Z,32.3
2018-08-18T06:28:05.251Z,31.3
2018-08-18T06:29:06.859Z,32.3
2018-08-18T06:30:08.141Z,32.3
2018-08-18T06:31:09.578Z,32.3
2018-08-18T06:32:11.034Z,31.8
2018-08-18T06:33:12.476Z,32.3
2018-08-18T06:34:14.092Z,31.8
2018-08-18T06:35:16.326Z,31.3
2018-08-18T06:36:17.676Z,31.8
2018-08-18T06:37:19.323Z,32.3
2018-08-18T06:38:20.756Z,31.3
2018-08-18T06:39:22.373Z,32.3
2018-08-18T06:40:24.049Z,31.8
2018-08-18T06:41:25.854Z,31.8
2018-08-18T06:42:27.815Z,31.3
2018-08-18T06:43:29.430Z,32.3
2018-08-18T06:44:31.051Z,31.8
2018-08-18T06:45:32.665Z,31.8
2018-08-18T06:46:34.315Z,31.3
2018-08-18T06:47:35.928Z,31.8
2018-08-18T06:48:37.368Z,31.3
2018-08-18T06:49:38.822Z,31.8
2018-08-18T06:50:40.262Z,32.7
2018-08-18T06:51:41.552Z,31.8
2018-08-18T06:52:43.158Z,31.8
2018-08-18T06:53:44.753Z,32.3
2018-08-18T06:54:46.608Z,31.8
2018-08-18T06:55:48.387Z,31.3
2018-08-18T06:56:50.008Z,31.3
2018-08-18T06:57:51.498Z,31.8
2018-08-18T06:58:53.099Z,31.3
2018-08-18T06:59:54.692Z,31.8
2018-08-18T07:00:56.302Z,31.3
2018-08-18T07:01:57.909Z,32.3
2018-08-18T07:02:59.365Z,31.3
2018-08-18T07:04:00.987Z,31.8
2018-08-18T07:05:02.460Z,31.3
2018-08-18T07:06:04.217Z,31.3
2018-08-18T07:07:05.871Z,31.3
2018-08-18T07:08:07.502Z,39.1
2018-08-18T07:09:09.111Z,41.5
2018-08-18T07:10:10.552Z,43.5
2018-08-18T07:11:11.986Z,44
2018-08-18T07:12:13.597Z,45
2018-08-18T07:13:15.047Z,45
2018-08-18T07:14:16.665Z,45.5
2018-08-18T07:15:18.264Z,44.5
2018-08-18T07:16:19.920Z,45.9
2018-08-18T07:17:21.529Z,45
2018-08-18T07:18:23.138Z,45.5
2018-08-18T07:19:25.308Z,44.5
2018-08-18T07:20:26.967Z,43.5
2018-08-18T07:21:28.590Z,44.5
2018-08-18T07:22:30.229Z,43
2018-08-18T07:23:31.843Z,42.5
2018-08-18T07:24:33.501Z,43
2018-08-18T07:25:35.100Z,42
2018-08-18T07:26:36.533Z,42.5
2018-08-18T07:27:38.141Z,42.5
2018-08-18T07:28:39.914Z,43
2018-08-18T07:29:41.749Z,42
2018-08-18T07:30:43.207Z,42
2018-08-18T07:31:44.807Z,41.5
2018-08-18T07:32:46.419Z,41.5
2018-08-18T07:33:48.030Z,41.1
2018-08-18T07:34:49.483Z,41.1
2018-08-18T07:35:50.902Z,40.1
2018-08-18T07:36:52.357Z,41.1
2018-08-18T07:37:53.964Z,40.6
2018-08-18T07:38:55.376Z,39.6
2018-08-18T07:39:57.000Z,40.1
2018-08-18T07:40:58.429Z,40.1
2018-08-18T07:41:59.856Z,39.6
2018-08-18T07:43:01.466Z,39.6
2018-08-18T07:44:03.076Z,39.1
2018-08-18T07:45:04.531Z,39.6
2018-08-18T07:46:06.170Z,38.1
2018-08-18T07:47:07.620Z,39.1
2018-08-18T07:48:09.843Z,38.6
2018-08-18T07:49:11.524Z,38.6
2018-08-18T07:50:12.972Z,38.1
2018-08-18T07:51:14.406Z,38.1
2018-08-18T07:52:15.841Z,38.1
2018-08-18T07:53:17.937Z,38.1
2018-08-18T07:54:19.886Z,37.6
2018-08-18T07:55:21.494Z,38.1
2018-08-18T07:56:23.151Z,38.6
2018-08-18T07:57:24.759Z,38.6
2018-08-18T07:58:26.358Z,37.1
2018-08-18T07:59:27.999Z,37.6
2018-08-18T08:00:29.286Z,36.7
2018-08-18T08:01:30.737Z,37.6
2018-08-18T08:02:32.335Z,37.6
2018-08-18T08:03:33.630Z,37.6
2018-08-18T08:04:35.241Z,36.7
2018-08-18T08:05:36.903Z,38.1
2018-08-18T08:06:38.601Z,37.6
2018-08-18T08:07:39.889Z,37.6
2018-08-18T08:08:41.354Z,37.1
2018-08-18T08:09:42.973Z,37.6
2018-08-18T08:10:44.597Z,36.7
2018-08-18T08:11:46.189Z,36.7
2018-08-18T08:12:48.259Z,36.7
2018-08-18T08:13:49.835Z,37.1
2018-08-18T08:14:51.460Z,37.1
2018-08-18T08:15:53.085Z,37.1
2018-08-18T08:16:54.568Z,37.1
2018-08-18T08:17:56.198Z,37.1
2018-08-18T08:18:57.816Z,37.1
2018-08-18T08:19:59.429Z,37.1
2018-08-18T08:21:01.051Z,36.2
2018-08-18T08:22:02.667Z,36.2
2018-08-18T08:23:04.105Z,36.2
2018-08-18T08:24:05.727Z,36.2
2018-08-18T08:25:07.036Z,36.7
2018-08-18T08:26:08.493Z,36.2
2018-08-18T08:27:10.113Z,37.1
2018-08-18T08:28:11.225Z,36.7
2018-08-18T08:29:12.667Z,36.2
2018-08-18T08:30:14.282Z,36.2
2018-08-18T08:31:15.712Z,36.7
2018-08-18T08:32:17.348Z,36.2
2018-08-18T08:33:18.796Z,35.7
2018-08-18T08:34:20.227Z,36.7
2018-08-18T08:35:21.846Z,35.7
2018-08-18T08:36:23.272Z,35.2
2018-08-18T08:37:24.731Z,35.7
2018-08-18T08:38:26.354Z,35.7
2018-08-18T08:39:27.965Z,35.7
2018-08-18T08:40:29.426Z,36.2
2018-08-18T08:41:30.726Z,35.2
2018-08-18T08:42:32.223Z,35.2
2018-08-18T08:43:33.676Z,35.7
2018-08-18T08:44:35.287Z,35.2
2018-08-18T08:45:36.911Z,36.2
2018-08-18T08:46:38.508Z,35.7
2018-08-18T08:47:39.958Z,35.2
2018-08-18T08:48:41.564Z,34.2
2018-08-18T08:49:43.198Z,35.7
2018-08-18T08:50:44.647Z,35.2
2018-08-18T08:51:46.264Z,35.2
2018-08-18T08:52:47.703Z,35.2
2018-08-18T08:53:49.148Z,34.7
2018-08-18T08:54:50.765Z,35.2
2018-08-18T08:55:52.200Z,35.2
2018-08-18T08:56:53.816Z,35.2
2018-08-18T08:57:55.433Z,35.2
2018-08-18T08:58:57.731Z,34.2
2018-08-18T08:59:59.610Z,34.7
2018-08-18T09:01:01.055Z,35.2
2018-08-18T09:02:02.496Z,34.2
2018-08-18T09:03:04.136Z,34.7
2018-08-18T09:04:05.579Z,34.7
2018-08-18T09:05:07.183Z,35.2
2018-08-18T09:06:08.461Z,34.7
2018-08-18T09:07:10.061Z,34.2
2018-08-18T09:08:11.674Z,34.7
2018-08-18T09:09:12.987Z,34.7
2018-08-18T09:10:14.284Z,34.7
2018-08-18T09:11:16.006Z,34.7
2018-08-18T09:12:17.106Z,34.7
2018-08-18T09:13:18.531Z,34.2
2018-08-18T09:14:20.126Z,34.7
2018-08-18T09:15:21.745Z,34.2
2018-08-18T09:16:23.343Z,34.2
2018-08-18T09:17:24.792Z,34.7
2018-08-18T09:18:26.396Z,34.2
2018-08-18T09:19:28.009Z,33.7
2018-08-18T09:20:29.617Z,34.2
2018-08-18T09:21:31.233Z,34.2
2018-08-18T09:22:32.653Z,33.7
2018-08-18T09:23:34.253Z,34.2
2018-08-18T09:24:35.867Z,34.2
2018-08-18T09:25:37.305Z,33.7
2018-08-18T09:26:38.916Z,34.2
2018-08-18T09:27:40.519Z,33.2
2018-08-18T09:28:42.008Z,33.7
2018-08-18T09:29:43.597Z,33.7
2018-08-18T09:30:45.186Z,33.7
2018-08-18T09:31:46.673Z,33.7
2018-08-18T09:32:48.100Z,33.2
2018-08-18T09:33:49.208Z,33.7
2018-08-18T09:34:50.647Z,33.2
2018-08-18T09:35:51.918Z,33.2
2018-08-18T09:36:53.550Z,33.2
2018-08-18T09:37:54.989Z,32.7
2018-08-18T09:38:56.598Z,33.2
2018-08-18T09:39:57.886Z,32.7
2018-08-18T09:40:59.489Z,33.2
2018-08-18T09:42:00.925Z,33.2
2018-08-18T09:43:02.375Z,33.2
2018-08-18T09:44:03.999Z,33.2
2018-08-18T09:45:05.605Z,33.7
2018-08-18T09:46:07.043Z,32.7
2018-08-18T09:47:08.493Z,33.2
2018-08-18T09:48:10.117Z,33.2
2018-08-18T09:49:11.743Z,31.8
2018-08-18T09:50:13.338Z,32.7
2018-08-18T09:51:14.936Z,33.2
2018-08-18T09:52:16.412Z,33.2
2018-08-18T09:53:17.837Z,32.3
2018-08-18T09:54:19.447Z,33.2
2018-08-18T09:55:21.068Z,33.2
2018-08-18T09:56:22.675Z,32.7
2018-08-18T09:57:24.122Z,32.7
2018-08-18T09:58:25.554Z,33.2
2018-08-18T09:59:27.158Z,32.7
2018-08-18T10:00:28.799Z,33.2
2018-08-18T10:01:30.245Z,32.7
2018-08-18T10:02:31.861Z,32.7
2018-08-18T10:03:33.459Z,32.3
2018-08-18T10:04:35.081Z,33.2
2018-08-18T10:05:36.347Z,32.7
2018-08-18T10:06:37.782Z,32.7
2018-08-18T10:07:39.225Z,32.7
2018-08-18T10:08:40.648Z,32.3
2018-08-18T10:09:42.275Z,33.2
2018-08-18T10:10:43.896Z,33.2
2018-08-18T10:11:45.522Z,33.2
2018-08-18T10:12:47.027Z,32.7
2018-08-18T10:13:48.642Z,33.2
2018-08-18T10:14:50.252Z,33.2
2018-08-18T10:15:51.707Z,33.2
2018-08-18T10:16:53.137Z,33.2
2018-08-18T10:17:54.575Z,32.7
2018-08-18T10:18:56.173Z,33.2
2018-08-18T10:19:57.775Z,32.7
2018-08-18T10:20:59.386Z,33.2
2018-08-18T10:22:00.844Z,33.2
2018-08-18T10:23:02.462Z,32.7
2018-08-18T10:24:03.765Z,33.7
2018-08-18T10:25:05.365Z,33.2
2018-08-18T10:26:06.846Z,32.7
2018-08-18T10:27:08.653Z,33.7
2018-08-18T10:28:10.303Z,33.7
2018-08-18T10:29:11.928Z,33.7
2018-08-18T10:30:13.519Z,33.2
2018-08-18T10:31:15.134Z,33.7
2018-08-18T10:32:16.574Z,33.7
2018-08-18T10:33:18.388Z,33.2
2018-08-18T10:34:20.110Z,32.7
2018-08-18T10:35:21.375Z,32.7
2018-08-18T10:36:22.960Z,33.7
2018-08-18T10:37:24.235Z,33.2
2018-08-18T10:38:25.676Z,33.2
2018-08-18T10:39:27.279Z,33.7
2018-08-18T10:40:28.736Z,33.2
2018-08-18T10:41:30.332Z,34.2
2018-08-18T10:42:31.971Z,32.7
2018-08-18T10:43:33.611Z,33.2
2018-08-18T10:44:35.216Z,33.2
2018-08-18T10:45:36.823Z,33.2
2018-08-18T10:46:38.264Z,34.2
2018-08-18T10:47:39.880Z,33.2
2018-08-18T10:48:41.483Z,32.7
2018-08-18T10:49:43.092Z,32.7
2018-08-18T10:50:44.696Z,33.7
2018-08-18T10:51:47.105Z,33.7
2018-08-18T10:52:48.693Z,33.7
2018-08-18T10:53:50.307Z,32.7
2018-08-18T10:54:51.736Z,32.7
2018-08-18T10:55:53.334Z,34.2
2018-08-18T10:56:54.952Z,33.2
2018-08-18T10:57:56.572Z,33.2
2018-08-18T10:58:58.165Z,32.7
2018-08-18T10:59:59.446Z,33.2
2018-08-18T11:01:01.051Z,32.7
2018-08-18T11:02:02.515Z,33.2
2018-08-18T11:03:04.129Z,32.7
2018-08-18T11:04:05.413Z,33.2
2018-08-18T11:05:07.038Z,33.2
2018-08-18T11:06:08.481Z,33.2
2018-08-18T11:07:10.101Z,32.7
2018-08-18T11:08:11.394Z,33.2
2018-08-18T11:09:12.987Z,33.2
2018-08-18T11:10:14.595Z,33.7
2018-08-18T11:11:16.221Z,33.2
2018-08-18T11:12:17.832Z,32.7
2018-08-18T11:13:19.285Z,32.7
2018-08-18T11:14:20.897Z,32.7
2018-08-18T11:15:22.514Z,32.3
2018-08-18T11:16:24.123Z,32.3
2018-08-18T11:17:25.716Z,33.2
2018-08-18T11:18:27.330Z,32.7
2018-08-18T11:19:28.777Z,32.7
2018-08-18T11:20:30.205Z,32.7
2018-08-18T11:21:31.494Z,32.7
2018-08-18T11:22:32.941Z,32.7
2018-08-18T11:23:34.768Z,32.7
2018-08-18T11:24:36.218Z,32.7
2018-08-18T11:25:37.667Z,33.7
2018-08-18T11:26:39.181Z,31.8
2018-08-18T11:27:40.796Z,33.2
2018-08-18T11:28:43.261Z,31.8
2018-08-18T11:29:45.106Z,32.7
2018-08-18T11:30:46.544Z,32.7
2018-08-18T11:31:47.985Z,32.7
2018-08-18T11:32:49.613Z,32.7
2018-08-18T11:33:51.209Z,32.7
2018-08-18T11:34:52.657Z,32.3
2018-08-18T11:35:54.102Z,33.2
2018-08-18T11:36:55.375Z,32.3
2018-08-18T11:37:56.811Z,33.2
2018-08-18T11:38:58.436Z,32.7
2018-08-18T11:39:59.729Z,31.8
2018-08-18T11:41:01.323Z,32.7
2018-08-18T11:42:02.780Z,32.7
2018-08-18T11:43:04.247Z,32.7
2018-08-18T11:44:05.910Z,32.3
2018-08-18T11:45:07.548Z,32.3
2018-08-18T11:46:09.186Z,32.3
2018-08-18T11:47:11.169Z,32.3
2018-08-18T11:48:12.784Z,31.8
2018-08-18T11:49:14.234Z,31.8
2018-08-18T11:50:15.688Z,32.3
2018-08-18T11:51:17.311Z,31.8
2018-08-18T11:52:18.755Z,31.8
2018-08-18T11:53:20.180Z,31.8
2018-08-18T11:54:21.628Z,32.3
2018-08-18T11:55:23.066Z,31.8
2018-08-18T11:56:24.496Z,31.8
2018-08-18T11:57:25.936Z,32.3
2018-08-18T11:58:27.044Z,31.8
2018-08-18T11:59:28.675Z,31.8
2018-08-18T12:00:30.111Z,32.3
2018-08-18T12:01:31.380Z,31.8
2018-08-18T12:02:32.869Z,30.8
2018-08-18T12:03:34.142Z,31.8
2018-08-18T12:04:35.748Z,32.3
2018-08-18T12:05:37.192Z,32.3
2018-08-18T12:06:38.623Z,31.8
2018-08-18T12:07:40.228Z,32.3
2018-08-18T12:08:41.840Z,31.8
2018-08-18T12:09:43.126Z,32.7
2018-08-18T12:10:45.209Z,32.7
2018-08-18T12:11:46.989Z,32.3
2018-08-18T12:12:48.610Z,32.3
2018-08-18T12:13:50.251Z,32.7
2018-08-18T12:14:51.663Z,32.7
2018-08-18T12:15:52.948Z,32.7
2018-08-18T12:16:54.593Z,32.7
2018-08-18T12:17:56.218Z,33.2
2018-08-18T12:18:57.827Z,32.3
2018-08-18T12:19:59.268Z,32.7
2018-08-18T12:21:00.875Z,32.7
2018-08-18T12:22:02.329Z,32.7
2018-08-18T12:23:03.764Z,32.7
2018-08-18T12:24:05.363Z,32.7
2018-08-18T12:25:06.803Z,32.3
2018-08-18T12:26:08.411Z,32.7
2018-08-18T12:27:10.011Z,33.2
2018-08-18T12:28:11.441Z,32.7
2018-08-18T12:29:13.037Z,33.2
2018-08-18T12:30:14.472Z,32.7
2018-08-18T12:31:16.101Z,32.7
2018-08-18T12:32:17.718Z,32.7
2018-08-18T12:33:19.333Z,33.2
2018-08-18T12:34:20.938Z,33.7
2018-08-18T12:35:22.551Z,32.7
2018-08-18T12:36:24.376Z,32.7
2018-08-18T12:37:25.970Z,33.2
2018-08-18T12:38:27.524Z,33.2
2018-08-18T12:39:28.655Z,32.7
2018-08-18T12:40:29.928Z,32.7
2018-08-18T12:41:31.393Z,33.2
2018-08-18T12:42:32.844Z,33.2
2018-08-18T12:43:34.991Z,32.7
2018-08-18T12:44:36.694Z,32.3
2018-08-18T12:45:38.326Z,32.3
2018-08-18T12:46:39.952Z,33.7
2018-08-18T12:47:41.397Z,32.7
2018-08-18T12:48:42.993Z,32.3
2018-08-18T12:49:44.808Z,32.7
2018-08-18T12:50:46.433Z,33.2
2018-08-18T12:51:47.916Z,33.2
2018-08-18T12:52:49.577Z,33.2
2018-08-18T12:53:51.188Z,32.7
2018-08-18T12:54:52.620Z,32.7
2018-08-18T12:55:54.498Z,32.7
2018-08-18T12:56:56.089Z,33.2
2018-08-18T12:57:57.731Z,32.7
2018-08-18T12:58:59.182Z,32.7
2018-08-18T13:00:00.807Z,33.2
2018-08-18T13:01:02.109Z,32.7
2018-08-18T13:02:03.557Z,32.7
2018-08-18T13:03:05.161Z,32.7
2018-08-18T13:04:06.770Z,32.7
2018-08-18T13:05:08.384Z,31.8
2018-08-18T13:06:09.831Z,33.2
2018-08-18T13:07:11.267Z,32.7
2018-08-18T13:08:12.729Z,32.3
2018-08-18T13:09:14.356Z,32.7
2018-08-18T13:10:15.992Z,32.7
2018-08-18T13:11:17.456Z,33.2
2018-08-18T13:12:19.082Z,32.3
2018-08-18T13:13:20.521Z,32.3
2018-08-18T13:14:22.297Z,32.3
2018-08-18T13:15:23.986Z,32.3
2018-08-18T13:16:25.585Z,33.2
2018-08-18T13:17:27.042Z,32.3
2018-08-18T13:18:28.650Z,32.3
2018-08-18T13:19:30.161Z,32.3
2018-08-18T13:20:31.612Z,31.8
2018-08-18T13:21:33.247Z,31.8
2018-08-18T13:22:34.865Z,32.3
2018-08-18T13:23:36.478Z,32.3
2018-08-18T13:24:38.089Z,31.8
2018-08-18T13:25:39.701Z,33.2
2018-08-18T13:26:41.121Z,31.8
2018-08-18T13:27:42.728Z,32.3
2018-08-18T13:28:44.338Z,32.3
2018-08-18T13:29:45.793Z,32.3
2018-08-18T13:30:47.072Z,32.3
2018-08-18T13:31:48.687Z,31.8
2018-08-18T13:32:50.142Z,32.3
2018-08-18T13:33:51.576Z,32.3
2018-08-18T13:34:52.859Z,32.3
2018-08-18T13:35:54.304Z,32.3
2018-08-18T13:36:55.929Z,32.3
2018-08-18T13:37:57.538Z,32.7
2018-08-18T13:38:59.132Z,32.3
2018-08-18T13:40:00.747Z,31.8
2018-08-18T13:41:02.218Z,32.3